Time;durP1;ratioP1;P1;durP2;ratioP2;P2;SDS_P1;SDS_P2;PMS_P1;PMS_P2;Temp;Humidity;BMP_temperature;BMP_pressure;BME280_temperature;BME280_humidity;BME280_pressure;Samples;Min_cycle;Max_cycle;Signal;HPM_P1;HPM_P2
2024/03/05 00:00:38;;;;;;;42.60;22.00;;;;;;;6.33;86.27;99820.98;129813;1263;114853;-65
2024/03/05 00:04:00;;;;;;;47.40;26.40;;;;;;;6.32;86.40;99819.82;128034;1260;2275966;-65
2024/03/05 00:07:02;;;;;;;44.80;23.60;;;;;;;6.32;86.19;99822.46;129723;1282;115163;-65
2024/03/05 00:10:04;;;;;;;46.00;25.70;;;;;;;6.31;86.33;99827.84;129851;1259;114967;-65
2024/03/05 00:13:07;;;;;;;38.60;18.80;;;;;;;6.30;86.30;99826.81;129426;1268;115386;-65
2024/03/05 00:16:09;;;;;;;47.70;23.80;;;;;;;6.28;86.46;99824.40;129669;1274;114739;-66
2024/03/05 00:19:11;;;;;;;49.90;24.90;;;;;;;6.26;86.23;99827.50;129415;1282;114866;-65
2024/03/05 00:22:13;;;;;;;48.80;27.30;;;;;;;6.27;86.20;99825.88;129727;1282;114763;-65
2024/03/05 00:25:14;;;;;;;50.50;23.80;;;;;;;6.28;86.33;99828.30;129686;1260;114665;-65
2024/03/05 00:28:18;;;;;;;43.90;21.60;;;;;;;6.28;86.30;99827.57;129679;1264;114844;-65
2024/03/05 00:31:22;;;;;;;50.50;24.60;;;;;;;6.26;86.26;99830.14;129737;1263;114748;-64
2024/03/05 00:34:24;;;;;;;54.70;28.30;;;;;;;6.24;86.38;99834.48;129847;1264;114763;-65
2024/03/05 00:37:26;;;;;;;46.70;25.10;;;;;;;6.21;86.41;99832.98;129852;1261;114841;-65
2024/03/05 00:40:29;;;;;;;45.40;23.00;;;;;;;6.19;86.50;99836.42;129683;1276;114758;-65
2024/03/05 00:43:32;;;;;;;50.40;26.40;;;;;;;6.16;86.55;99839.04;129577;1264;115610;-65
2024/03/05 00:46:34;;;;;;;54.90;25.90;;;;;;;6.16;86.57;99845.08;129744;1263;115135;-65
2024/03/05 00:49:35;;;;;;;55.90;25.60;;;;;;;6.13;86.74;99842.51;129736;1264;115031;-64
2024/03/05 00:52:38;;;;;;;49.70;24.30;;;;;;;6.12;86.65;99845.06;129687;1261;114684;-66
2024/03/05 00:55:40;;;;;;;42.80;22.30;;;;;;;6.11;86.65;99845.11;129692;1261;114834;-65
2024/03/05 00:58:42;;;;;;;53.60;25.90;;;;;;;6.11;86.77;99844.58;129743;1264;115501;-66
2024/03/05 01:01:44;;;;;;;47.20;25.10;;;;;;;6.10;86.89;99847.09;129454;1267;115224;-65
2024/03/05 01:04:46;;;;;;;53.80;25.30;;;;;;;6.08;86.74;99848.39;129671;1260;114813;-65
2024/03/05 01:07:48;;;;;;;53.50;24.80;;;;;;;6.05;86.82;99849.38;129920;1264;114769;-65
2024/03/05 01:10:50;;;;;;;51.60;26.10;;;;;;;6.04;86.85;99842.52;129112;1267;116558;-65
2024/03/05 01:13:52;;;;;;;55.00;27.30;;;;;;;6.04;87.02;99845.91;129706;1278;115341;-65
2024/03/05 01:16:53;;;;;;;39.90;19.00;;;;;;;6.03;87.06;99845.91;129765;1260;114727;-65
2024/03/05 01:19:55;;;;;;;54.20;26.00;;;;;;;6.03;86.98;99845.38;129676;1260;128513;-65
2024/03/05 01:22:57;;;;;;;55.20;26.90;;;;;;;6.02;87.14;99845.44;129741;1261;114897;-65
2024/03/05 01:25:59;;;;;;;60.30;28.60;;;;;;;6.00;87.06;99851.88;129915;1264;114847;-65
2024/03/05 01:29:01;;;;;;;62.30;30.80;;;;;;;6.01;87.29;99850.98;129617;1270;114931;-65
2024/03/05 01:32:04;;;;;;;56.60;25.60;;;;;;;6.02;87.42;99850.75;129798;1263;114762;-64
2024/03/05 01:35:10;;;;;;;59.50;30.00;;;;;;;6.02;87.27;99849.34;129763;1263;114825;-65
2024/03/05 01:38:12;;;;;;;52.60;25.40;;;;;;;6.03;87.37;99851.97;129545;1275;115344;-64
2024/03/05 01:41:14;;;;;;;48.70;25.70;;;;;;;6.03;87.45;99853.39;129894;1264;114835;-65
2024/03/05 01:44:16;;;;;;;49.50;26.10;;;;;;;6.01;87.26;99853.08;129749;1259;114668;-66
2024/03/05 01:47:17;;;;;;;46.50;24.80;;;;;;;6.00;87.42;99854.73;129592;1281;114796;-65
2024/03/05 01:50:19;;;;;;;54.60;24.70;;;;;;;5.97;87.35;99855.85;129828;1263;114748;-65
2024/03/05 01:53:21;;;;;;;48.50;25.00;;;;;;;5.97;87.41;99852.51;129855;1277;115513;-65
2024/03/05 01:56:24;;;;;;;51.20;25.60;;;;;;;5.97;87.54;99852.13;129476;1264;114969;-65
2024/03/05 01:59:26;;;;;;;44.60;24.30;;;;;;;5.97;87.47;99852.84;129647;1263;114850;-64
2024/03/05 02:02:29;;;;;;;56.80;27.90;;;;;;;5.98;87.60;99851.04;129691;1260;114767;-64
2024/03/05 02:05:32;;;;;;;52.40;24.70;;;;;;;6.00;87.57;99851.36;129817;1260;116433;-64
2024/03/05 02:08:35;;;;;;;49.50;23.00;;;;;;;6.01;87.78;99854.16;129578;1265;114725;-65
2024/03/05 02:11:38;;;;;;;43.70;23.60;;;;;;;6.02;87.74;99859.98;129892;1263;114747;-65
2024/03/05 02:14:41;;;;;;;54.30;28.50;;;;;;;6.00;87.78;99859.16;129735;1260;114828;-65
2024/03/05 02:17:43;;;;;;;44.30;24.50;;;;;;;6.00;87.71;99861.80;129811;1259;114744;-65
2024/03/05 02:20:45;;;;;;;51.30;25.20;;;;;;;6.00;87.78;99859.87;129890;1263;114793;-65
2024/03/05 02:23:47;;;;;;;47.10;26.80;;;;;;;6.00;87.91;99864.48;129095;1266;128013;-65
2024/03/05 02:26:50;;;;;;;52.30;24.30;;;;;;;5.99;87.83;99862.70;129659;1264;114818;-65
2024/03/05 02:29:52;;;;;;;51.90;24.80;;;;;;;6.01;87.98;99865.52;129778;1274;114827;-65
2024/03/05 02:32:54;;;;;;;56.60;25.30;;;;;;;6.03;87.94;99868.09;129693;1259;114739;-65
2024/03/05 02:35:59;;;;;;;54.50;23.40;;;;;;;6.01;87.88;99871.54;129454;1259;114943;-65
2024/03/05 02:39:00;;;;;;;44.40;21.50;;;;;;;5.95;87.73;99877.21;129450;1267;114833;-65
2024/03/05 02:42:03;;;;;;;53.10;24.00;;;;;;;5.91;87.82;99877.17;129677;1282;115370;-65
2024/03/05 02:45:05;;;;;;;48.60;25.40;;;;;;;5.88;87.81;99877.84;129755;1260;114782;-65
2024/03/05 02:48:08;;;;;;;51.90;26.00;;;;;;;5.87;87.99;99880.35;129827;1259;115174;-65
2024/03/05 02:51:10;;;;;;;50.50;24.30;;;;;;;5.85;87.90;99883.05;129889;1282;115372;-65
2024/03/05 02:54:11;;;;;;;53.40;25.90;;;;;;;5.84;88.02;99888.98;129896;1264;114790;-65
2024/03/05 02:57:13;;;;;;;53.90;26.10;;;;;;;5.83;88.01;99889.89;129725;1282;114773;-65
2024/03/05 03:00:24;;;;;;;56.50;26.40;;;;;;;5.84;88.05;99892.15;129484;1281;114873;-65
2024/03/05 03:03:25;;;;;;;48.00;25.60;;;;;;;5.86;88.17;99895.83;129477;1267;127862;-65
2024/03/05 03:06:27;;;;;;;53.20;25.50;;;;;;;5.82;88.00;99897.89;129861;1264;114830;-64
2024/03/05 03:09:29;;;;;;;54.00;26.20;;;;;;;5.79;88.07;99901.52;129828;1259;114790;-65
2024/03/05 03:12:31;;;;;;;49.40;25.50;;;;;;;5.76;88.04;99902.71;129730;1274;114825;-65
2024/03/05 03:15:33;;;;;;;48.20;24.10;;;;;;;5.74;88.20;99903.13;129711;1278;114726;-66
2024/03/05 03:18:36;;;;;;;43.80;21.40;;;;;;;5.72;88.21;99901.44;129765;1259;114755;-65
2024/03/05 03:21:37;;;;;;;44.40;25.20;;;;;;;5.69;88.23;99896.79;129474;1266;114779;-65
2024/03/05 03:24:39;;;;;;;51.20;25.70;;;;;;;5.69;88.34;99895.35;129647;1263;114807;-65
2024/03/05 03:27:41;;;;;;;43.90;21.90;;;;;;;5.69;88.38;99893.58;129751;1282;114914;-65
2024/03/05 03:30:43;;;;;;;44.80;21.60;;;;;;;5.67;88.41;99894.36;129675;1264;114760;-65
2024/03/05 03:33:44;;;;;;;44.50;24.40;;;;;;;5.68;88.45;99897.52;129790;1259;114769;-65
2024/03/05 03:36:46;;;;;;;46.00;23.00;;;;;;;5.67;88.47;99899.48;129803;1263;114758;-65
2024/03/05 03:39:48;;;;;;;38.30;18.60;;;;;;;5.67;88.56;99895.77;129736;1275;114639;-65
2024/03/05 03:42:51;;;;;;;38.30;20.50;;;;;;;5.66;88.56;99898.11;129737;1263;115327;-65
2024/03/05 03:45:52;;;;;;;40.20;21.80;;;;;;;5.66;88.55;99900.95;129711;1274;114721;-65
2024/03/05 03:48:54;;;;;;;34.10;18.90;;;;;;;5.64;88.44;99904.73;129750;1263;129673;-64
2024/03/05 03:51:56;;;;;;;34.80;19.10;;;;;;;5.64;88.51;99910.59;129695;1282;114742;-65
2024/03/05 03:54:58;;;;;;;31.90;18.10;;;;;;;5.62;88.51;99909.21;130126;1275;114658;-65
2024/03/05 03:58:00;;;;;;;36.30;18.90;;;;;;;5.62;88.53;99907.45;129737;1264;114995;-64
2024/03/05 04:01:02;;;;;;;36.10;21.40;;;;;;;5.61;88.67;99909.27;129749;1260;114817;-66
2024/03/05 04:04:05;;;;;;;37.80;20.20;;;;;;;5.62;88.67;99908.88;129755;1259;114819;-65
2024/03/05 04:07:06;;;;;;;34.10;21.10;;;;;;;5.62;88.63;99910.84;129506;1266;114844;-65
2024/03/05 04:10:12;;;;;;;38.00;19.50;;;;;;;5.61;88.82;99911.93;129729;1263;114742;-65
2024/03/05 04:13:14;;;;;;;31.50;20.60;;;;;;;5.59;88.78;99915.35;129665;1259;114850;-65
2024/03/05 04:16:15;;;;;;;36.10;19.10;;;;;;;5.58;88.81;99917.71;129711;1264;115421;-66
2024/03/05 04:19:17;;;;;;;40.20;21.00;;;;;;;5.58;88.87;99917.35;129941;1259;114828;-66
2024/03/05 04:22:19;;;;;;;34.90;19.70;;;;;;;5.59;88.99;99919.79;129418;1267;114938;-65
2024/03/05 04:25:25;;;;;;;34.70;20.30;;;;;;;5.58;89.15;99919.83;129689;1264;115254;-65
2024/03/05 04:28:35;;;;;;;34.00;19.50;;;;;;;5.58;89.03;99924.78;129490;1273;127636;-66
2024/03/05 04:31:39;;;;;;;34.00;20.20;;;;;;;5.57;89.30;99928.19;129669;1263;114744;-65
2024/03/05 04:34:42;;;;;;;34.10;19.70;;;;;;;5.55;89.15;99930.73;129740;1276;114952;-66
2024/03/05 04:37:45;;;;;;;32.30;17.60;;;;;;;5.53;89.28;99934.52;129533;1263;114902;-66
2024/03/05 04:40:48;;;;;;;34.70;19.60;;;;;;;5.51;89.21;99934.95;129658;1263;114800;-66
2024/03/05 04:43:50;;;;;;;28.20;16.90;;;;;;;5.46;89.05;99939.71;129825;1263;114800;-65
2024/03/05 04:46:52;;;;;;;38.80;19.10;;;;;;;5.39;88.96;99936.09;129770;1259;114778;-66
2024/03/05 04:49:55;;;;;;;34.10;18.60;;;;;;;5.35;89.04;99942.23;129581;1267;115040;-66
2024/03/05 04:52:57;;;;;;;40.00;19.40;;;;;;;5.34;89.19;99938.89;129720;1264;115285;-66
2024/03/05 04:56:01;;;;;;;36.10;18.50;;;;;;;5.35;89.19;99936.56;129741;1263;114769;-66
2024/03/05 04:59:03;;;;;;;35.30;20.40;;;;;;;5.37;89.16;99938.80;129809;1259;114814;-66
2024/03/05 05:02:05;;;;;;;33.60;19.30;;;;;;;5.39;89.01;99944.02;129778;1264;114761;-67
2024/03/05 05:05:07;;;;;;;33.90;18.40;;;;;;;5.38;88.89;99940.88;129756;1264;128916;-66
2024/03/05 05:08:10;;;;;;;32.90;16.40;;;;;;;5.35;88.68;99940.27;129766;1264;115241;-66
2024/03/05 05:11:11;;;;;;;35.90;20.20;;;;;;;5.32;88.56;99943.55;129642;1263;114762;-66
2024/03/05 05:14:13;;;;;;;31.90;16.90;;;;;;;5.31;88.61;99945.52;129879;1262;114838;-67
2024/03/05 05:17:15;;;;;;;26.90;17.60;;;;;;;5.34;88.72;99949.16;129586;1261;114882;-66
2024/03/05 05:20:18;;;;;;;35.90;18.20;;;;;;;5.33;88.78;99947.23;129730;1263;114735;-66
2024/03/05 05:23:20;;;;;;;30.50;16.30;;;;;;;5.34;88.82;99949.15;129869;1264;114851;-66
2024/03/05 05:26:22;;;;;;;34.00;18.50;;;;;;;5.33;88.57;99951.50;129758;1264;128593;-67
2024/03/05 05:29:23;;;;;;;33.10;16.90;;;;;;;5.31;88.70;99955.47;129937;1282;114737;-66
2024/03/05 05:32:26;;;;;;;40.00;19.60;;;;;;;5.28;88.67;99952.54;129983;1258;114818;-66
2024/03/05 05:35:28;;;;;;;38.90;18.10;;;;;;;5.27;88.70;99953.80;129861;1264;114774;-66
2024/03/05 05:38:30;;;;;;;35.50;18.00;;;;;;;5.26;88.52;99956.16;129765;1264;114764;-66
2024/03/05 05:41:32;;;;;;;31.10;17.40;;;;;;;5.25;88.70;99959.20;129723;1259;115009;-66
2024/03/05 05:44:33;;;;;;;33.20;17.60;;;;;;;5.26;88.79;99963.95;129508;1261;115113;-66
2024/03/05 05:47:38;;;;;;;34.40;17.70;;;;;;;5.25;88.76;99963.45;129660;1263;114855;-66
2024/03/05 05:50:42;;;;;;;35.80;19.30;;;;;;;5.23;88.65;99964.39;129747;1265;115260;-66
2024/03/05 05:53:44;;;;;;;37.60;19.00;;;;;;;5.22;88.84;99963.00;129629;1267;114960;-66
2024/03/05 05:56:48;;;;;;;39.40;18.80;;;;;;;5.20;88.83;99962.56;129756;1261;114811;-66
2024/03/05 05:59:49;;;;;;;31.60;18.20;;;;;;;5.19;88.82;99966.33;129702;1259;115459;-66
2024/03/05 06:02:52;;;;;;;30.40;17.40;;;;;;;5.18;88.99;99966.69;129784;1263;114770;-66
2024/03/05 06:05:54;;;;;;;23.00;12.30;;;;;;;5.20;89.18;99971.92;129856;1282;127796;-66
2024/03/05 06:08:56;;;;;;;34.50;18.60;;;;;;;5.18;89.10;99971.27;129797;1282;114793;-66
2024/03/05 06:11:58;;;;;;;33.70;18.60;;;;;;;5.19;89.18;99976.02;129852;1263;114738;-66
2024/03/05 06:15:00;;;;;;;32.40;17.70;;;;;;;5.20;89.19;99980.80;129694;1281;115376;-66
2024/03/05 06:18:03;;;;;;;33.70;17.20;;;;;;;5.17;89.17;99985.11;129627;1261;114713;-66
2024/03/05 06:21:05;;;;;;;32.50;19.40;;;;;;;5.17;89.32;99989.91;129645;1263;114837;-66
2024/03/05 06:24:07;;;;;;;32.80;17.30;;;;;;;5.17;89.47;99992.55;129804;1260;114766;-66
2024/03/05 06:27:08;;;;;;;35.20;16.80;;;;;;;5.18;89.47;99993.59;129968;1260;128550;-67
2024/03/05 06:30:17;;;;;;;28.80;15.00;;;;;;;5.15;89.49;99998.27;129716;1260;114775;-66
2024/03/05 06:33:19;;;;;;;32.70;15.80;;;;;;;5.12;89.43;99996.63;129882;1263;114673;-65
2024/03/05 06:36:22;;;;;;;32.40;16.50;;;;;;;5.13;89.52;99995.36;129884;1260;114888;-66
2024/03/05 06:39:29;;;;;;;29.90;16.10;;;;;;;5.13;89.83;100000.64;129952;1264;114734;-66
2024/03/05 06:42:32;;;;;;;34.40;17.20;;;;;;;5.13;89.57;99997.10;129871;1259;128671;-65
2024/03/05 06:45:34;;;;;;;25.70;13.40;;;;;;;5.16;89.44;100006.41;129657;1262;114864;-66
2024/03/05 06:48:38;;;;;;;26.20;16.60;;;;;;;5.17;89.57;100007.08;129767;1259;116379;-65
2024/03/05 06:51:53;;;;;;;24.30;12.10;;;;;;;5.20;89.52;100010.52;129844;1264;115437;-66
2024/03/05 06:58:15;;;;;;;25.60;16.00;;;;;;;5.25;89.43;100011.97;129757;1263;129197;-66
2024/03/05 07:01:19;;;;;;;24.30;13.90;;;;;;;5.28;89.27;100011.50;129665;1265;115007;-65
2024/03/05 07:04:22;;;;;;;25.00;13.20;;;;;;;5.27;88.98;100012.95;129918;1261;114732;-66
2024/03/05 07:07:25;;;;;;;22.10;12.20;;;;;;;5.29;89.14;100015.52;129653;1260;114800;-65
2024/03/05 07:10:28;;;;;;;27.50;13.80;;;;;;;5.30;88.85;100019.75;129697;1264;114767;-66
2024/03/05 07:13:30;;;;;;;22.30;13.60;;;;;;;5.29;88.65;100022.98;129647;1263;114815;-66
2024/03/05 07:16:32;;;;;;;26.10;14.60;;;;;;;5.31;88.82;100022.03;129832;1264;115120;-66
2024/03/05 07:19:34;;;;;;;26.80;14.40;;;;;;;5.35;88.91;100027.23;129699;1263;114707;-66
2024/03/05 07:22:36;;;;;;;27.40;14.90;;;;;;;5.38;88.69;100028.38;129728;1264;115416;-66
2024/03/05 07:25:38;;;;;;;22.20;13.00;;;;;;;5.40;88.73;100033.08;129751;1262;115267;-66
2024/03/05 07:28:40;;;;;;;26.30;14.90;;;;;;;5.44;88.71;100035.78;129815;1259;114823;-66
2024/03/05 07:31:42;;;;;;;24.60;14.40;;;;;;;5.48;88.60;100041.48;129709;1266;114766;-66
2024/03/05 07:34:44;;;;;;;26.10;14.60;;;;;;;5.51;88.41;100042.64;129668;1259;115356;-66
2024/03/05 07:37:46;;;;;;;26.30;15.00;;;;;;;5.54;88.40;100041.83;129581;1259;128077;-66
2024/03/05 07:40:49;;;;;;;26.10;16.20;;;;;;;5.58;88.59;100045.23;129678;1260;115250;-65
2024/03/05 07:43:51;;;;;;;27.50;14.10;;;;;;;5.62;88.56;100046.35;129793;1264;115115;-65
2024/03/05 07:46:53;;;;;;;14.60;9.00;;;;;;;5.68;88.57;100049.00;129734;1259;115288;-65
2024/03/05 07:49:54;;;;;;;24.70;13.50;;;;;;;5.74;88.40;100050.38;129574;1267;114952;-66
2024/03/05 07:52:59;;;;;;;30.30;17.90;;;;;;;5.80;88.36;100051.95;129831;1264;114751;-65
2024/03/05 07:56:03;;;;;;;24.60;14.30;;;;;;;5.83;88.26;100055.22;129549;1268;128265;-66
2024/03/05 07:59:05;;;;;;;23.50;13.30;;;;;;;5.88;88.08;100057.20;129706;1259;115231;-66
2024/03/05 08:02:07;;;;;;;20.90;12.70;;;;;;;5.91;87.85;100058.15;129725;1259;115352;-66
2024/03/05 08:05:09;;;;;;;21.20;13.00;;;;;;;5.97;88.05;100056.34;129870;1264;114748;-66
2024/03/05 08:08:11;;;;;;;22.40;12.70;;;;;;;6.08;88.04;100060.80;129703;1275;114680;-65
2024/03/05 08:11:13;;;;;;;20.90;13.60;;;;;;;6.17;87.43;100063.32;129719;1265;114972;-66
2024/03/05 08:14:14;;;;;;;18.50;11.40;;;;;;;6.20;87.07;100062.86;129855;1265;115349;-66
2024/03/05 08:17:17;;;;;;;18.20;11.10;;;;;;;6.28;87.11;100059.73;129717;1262;129545;-66
2024/03/05 08:20:26;;;;;;;16.80;9.80;;;;;;;6.39;86.61;100063.96;129691;1265;114683;-65
2024/03/05 08:23:27;;;;;;;18.10;11.30;;;;;;;6.50;86.37;100064.79;129793;1259;114803;-66
2024/03/05 08:26:29;;;;;;;20.20;12.40;;;;;;;6.61;86.40;100066.17;129853;1264;114733;-66
2024/03/05 08:29:31;;;;;;;18.90;11.70;;;;;;;6.71;86.13;100063.34;129763;1265;114726;-66
2024/03/05 08:32:43;;;;;;;18.10;12.20;;;;;;;6.81;85.99;100062.58;129552;1265;114823;-66
2024/03/05 08:35:45;;;;;;;20.00;12.40;;;;;;;6.99;86.25;100061.38;129442;1265;127774;-66
2024/03/05 08:38:47;;;;;;;16.40;11.20;;;;;;;7.18;85.90;100062.27;129866;1263;114756;-66
2024/03/05 08:41:49;;;;;;;15.10;9.70;;;;;;;7.38;85.57;100058.77;129794;1259;114752;-66
2024/03/05 08:44:51;;;;;;;18.60;12.10;;;;;;;7.55;84.49;100059.16;129498;1267;114813;-66
2024/03/05 08:47:54;;;;;;;16.00;11.10;;;;;;;7.71;84.02;100066.34;129793;1261;114819;-66
2024/03/05 08:50:58;;;;;;;17.90;10.50;;;;;;;7.88;84.25;100067.23;129896;1263;114784;-66
2024/03/05 08:54:00;;;;;;;15.40;10.80;;;;;;;8.08;84.00;100069.93;129684;1263;114782;-66
2024/03/05 08:57:04;;;;;;;15.30;11.30;;;;;;;8.22;83.80;100068.26;129892;1260;114716;-66
2024/03/05 09:00:07;;;;;;;14.30;9.20;;;;;;;8.26;82.84;100068.98;129860;1263;114819;-66
2024/03/05 09:03:11;;;;;;;17.50;12.00;;;;;;;8.24;81.73;100068.02;129600;1259;114930;-65
2024/03/05 09:06:16;;;;;;;15.10;11.40;;;;;;;8.19;80.94;100068.02;129707;1265;114757;-66
2024/03/05 09:09:18;;;;;;;16.10;10.00;;;;;;;8.13;81.15;100072.02;129634;1263;114922;-65
2024/03/05 09:12:20;;;;;;;20.10;14.10;;;;;;;8.17;80.98;100073.14;129664;1282;114895;-66
2024/03/05 09:15:21;;;;;;;14.50;10.10;;;;;;;8.14;80.26;100069.87;129922;1265;114718;-66
2024/03/05 09:18:23;;;;;;;9.70;7.50;;;;;;;8.09;80.05;100073.98;129523;1268;114925;-66
2024/03/05 09:21:25;;;;;;;11.80;8.60;;;;;;;8.10;79.53;100074.48;129700;1261;114784;-66
2024/03/05 09:24:27;;;;;;;12.30;8.00;;;;;;;8.13;79.16;100077.54;129734;1274;115128;-65
2024/03/05 09:27:29;;;;;;;13.40;9.10;;;;;;;8.18;78.88;100080.55;129705;1264;115125;-66
2024/03/05 09:30:33;;;;;;;14.70;10.90;;;;;;;8.22;78.11;100079.83;129680;1265;114800;-66
2024/03/05 09:33:35;;;;;;;13.40;9.00;;;;;;;8.28;78.92;100074.77;129632;1260;114834;-66
2024/03/05 09:36:38;;;;;;;14.40;10.00;;;;;;;8.50;79.04;100075.61;129741;1264;115405;-66
2024/03/05 09:39:40;;;;;;;11.80;9.10;;;;;;;8.61;77.10;100076.39;129673;1282;114754;-66
2024/03/05 09:42:42;;;;;;;12.40;9.20;;;;;;;8.60;76.42;100072.71;129666;1265;115181;-66
2024/03/05 09:45:45;;;;;;;12.10;8.60;;;;;;;8.60;77.11;100073.05;129676;1265;114692;-66
2024/03/05 09:48:47;;;;;;;9.80;6.80;;;;;;;8.73;77.20;100066.95;129684;1282;114830;-65
2024/03/05 09:51:49;;;;;;;14.50;9.10;;;;;;;8.84;76.03;100066.08;129644;1265;114744;-67
2024/03/05 09:54:50;;;;;;;15.00;9.80;;;;;;;8.92;75.42;100064.10;129857;1259;115648;-66
2024/03/05 09:57:54;;;;;;;12.20;8.40;;;;;;;9.14;75.46;100065.79;129526;1270;128267;-66
2024/03/05 10:00:56;;;;;;;14.40;8.70;;;;;;;9.47;75.94;100065.09;129575;1282;114824;-67
2024/03/05 10:03:58;;;;;;;15.30;9.90;;;;;;;9.78;75.56;100066.60;129730;1259;114808;-66
2024/03/05 10:06:59;;;;;;;18.20;13.60;;;;;;;9.93;74.49;100073.71;129832;1263;114761;-67
2024/03/05 10:10:02;;;;;;;14.70;11.40;;;;;;;9.86;72.07;100081.35;129724;1264;114707;-66
2024/03/05 10:13:05;;;;;;;15.60;10.10;;;;;;;9.68;71.71;100085.63;129681;1276;114724;-66
2024/03/05 10:16:22;;;;;;;14.90;10.60;;;;;;;9.58;71.92;100082.90;129709;1259;114771;-66
2024/03/05 10:19:24;;;;;;;16.00;11.60;;;;;;;9.58;72.26;100086.09;129675;1265;114891;-66
2024/03/05 10:22:26;;;;;;;16.10;11.50;;;;;;;9.61;71.63;100084.73;129671;1264;114745;-66
2024/03/05 10:25:29;;;;;;;16.50;10.10;;;;;;;9.61;71.96;100087.94;129732;1263;114720;-66
2024/03/05 10:28:31;;;;;;;16.00;10.00;;;;;;;9.61;71.72;100087.94;129692;1263;114924;-67
2024/03/05 10:31:33;;;;;;;16.90;10.10;;;;;;;9.61;71.88;100093.47;129710;1265;114708;-67
2024/03/05 10:34:42;;;;;;;16.40;10.90;;;;;;;9.62;72.15;100096.64;129806;1282;114737;-66
2024/03/05 10:38:17;;;;;;;16.40;12.10;;;;;;;9.59;71.66;100096.92;129646;1282;128814;-67
2024/03/05 10:41:31;;;;;;;15.30;10.60;;;;;;;9.53;72.01;100097.41;129761;1259;114752;-66
2024/03/05 10:44:35;;;;;;;18.60;13.20;;;;;;;9.49;72.02;100100.45;129763;1265;114820;-65
2024/03/05 10:47:37;;;;;;;17.30;12.30;;;;;;;9.48;71.76;100105.35;129460;1265;114739;-66
2024/03/05 10:50:41;;;;;;;18.10;13.40;;;;;;;9.40;71.08;100109.98;129513;1265;115228;-65
2024/03/05 10:53:43;;;;;;;18.70;12.50;;;;;;;9.33;71.28;100107.64;129662;1275;114732;-67
2024/03/05 10:56:45;;;;;;;19.60;13.30;;;;;;;9.32;71.10;100109.98;129687;1264;115461;-66
2024/03/05 10:59:52;;;;;;;23.90;14.80;;;;;;;9.31;71.04;100108.11;129702;1264;114814;-66
2024/03/05 11:02:58;;;;;;;18.90;11.10;;;;;;;9.33;70.76;100108.91;129691;1260;114762;-66
2024/03/05 11:06:00;;;;;;;18.90;12.40;;;;;;;9.25;70.41;100110.83;129556;1268;114896;-66
2024/03/05 11:09:03;;;;;;;16.00;12.20;;;;;;;9.20;70.10;100111.46;129808;1265;114822;-66
2024/03/05 11:12:09;;;;;;;16.40;11.80;;;;;;;9.11;70.13;100111.32;129736;1259;114811;-66
2024/03/05 11:15:12;;;;;;;17.50;12.00;;;;;;;9.08;70.05;100113.26;129739;1263;128732;-68
2024/03/05 11:18:31;;;;;;;18.60;12.70;;;;;;;9.08;70.37;100113.79;129726;1264;114663;-67
2024/03/05 11:21:38;;;;;;;;;;;;;;;9.09;70.38;100118.05;129601;1267;114680;-66
2024/03/05 11:24:40;;;;;;;17.90;12.70;;;;;;;9.00;69.28;100122.17;129723;1265;114752;-65
2024/03/05 11:27:46;;;;;;;18.90;13.20;;;;;;;8.85;69.69;100122.65;129690;1265;115136;-67
2024/03/05 11:31:07;;;;;;;17.20;11.60;;;;;;;8.79;69.39;100123.13;129499;1268;127887;-65
2024/03/05 11:34:11;;;;;;;17.10;11.80;;;;;;;8.64;69.07;100122.55;129530;1259;114822;-65
2024/03/05 11:37:15;;;;;;;16.70;11.20;;;;;;;8.56;69.37;100132.52;129556;1260;115184;-66
2024/03/05 11:40:24;;;;;;;17.00;11.20;;;;;;;8.46;69.42;100132.91;129607;1268;114944;-66
2024/03/05 11:43:39;;;;;;;15.90;11.60;;;;;;;8.39;69.65;100137.30;129643;1265;114803;-66
2024/03/05 11:46:44;;;;;;;15.50;9.90;;;;;;;8.32;69.63;100138.27;129708;1264;128818;-66
2024/03/05 11:49:46;;;;;;;9.10;6.10;;;;;;;8.26;69.65;100142.14;129738;1266;114896;-66
2024/03/05 11:52:48;;;;;;;19.20;12.30;;;;;;;8.18;69.53;100145.30;129756;1265;114734;-66
2024/03/05 11:55:52;;;;;;;16.60;12.50;;;;;;;8.09;69.30;100144.95;129781;1264;115204;-66
2024/03/05 11:58:54;;;;;;;19.20;11.50;;;;;;;8.03;69.88;100146.80;129723;1282;114777;-65
2024/03/05 12:01:57;;;;;;;19.50;12.00;;;;;;;7.96;69.69;100148.17;129693;1259;115130;-66
2024/03/05 12:05:03;;;;;;;17.80;12.10;;;;;;;7.85;69.40;100148.08;129502;1275;308354;-66
2024/03/05 12:08:06;;;;;;;19.40;13.60;;;;;;;7.78;69.78;100146.59;129683;1282;114844;-66
2024/03/05 12:11:09;;;;;;;19.50;12.20;;;;;;;7.74;70.08;100143.36;129747;1266;114719;-66
2024/03/05 12:14:11;;;;;;;18.50;12.70;;;;;;;7.79;70.22;100149.02;129750;1265;114791;-67
2024/03/05 12:17:14;;;;;;;22.80;13.40;;;;;;;7.84;70.03;100151.29;129851;1259;114741;-66
2024/03/05 12:20:19;;;;;;;24.40;15.40;;;;;;;7.89;70.38;100155.55;129677;1264;114796;-66
2024/03/05 12:23:21;;;;;;;21.10;14.20;;;;;;;7.91;70.09;100160.46;129582;1260;128783;-66
2024/03/05 12:26:23;;;;;;;21.50;12.70;;;;;;;7.95;70.54;100167.05;129665;1265;114748;-66
2024/03/05 12:29:36;;;;;;;22.40;13.80;;;;;;;7.97;70.01;100167.88;129728;1263;114798;-67
2024/03/05 12:32:42;;;;;;;24.80;15.00;;;;;;;7.93;70.29;100167.51;129570;1267;114830;-66
2024/03/05 12:35:48;;;;;;;22.00;13.90;;;;;;;7.94;70.36;100168.91;129782;1282;114745;-66
2024/03/05 12:38:49;;;;;;;20.70;13.60;;;;;;;7.93;70.22;100167.86;129739;1282;114756;-66
2024/03/05 12:41:58;;;;;;;20.80;13.20;;;;;;;7.94;70.37;100165.67;129728;1282;115407;-65
2024/03/05 12:45:05;;;;;;;22.00;14.20;;;;;;;7.91;70.00;100167.91;129177;1282;114859;-66
2024/03/05 12:48:08;;;;;;;24.60;13.80;;;;;;;7.89;70.18;100174.74;129796;1282;114750;-65
2024/03/05 12:51:14;;;;;;;25.20;15.00;;;;;;;7.88;70.33;100169.46;129784;1265;114750;-66
2024/03/05 12:54:17;;;;;;;22.40;13.20;;;;;;;7.89;69.99;100168.00;129523;1268;114957;-66
2024/03/05 12:57:26;;;;;;;21.50;12.40;;;;;;;7.90;70.03;100172.06;129676;1265;114698;-66
2024/03/05 13:00:28;;;;;;;22.60;14.70;;;;;;;7.86;69.88;100175.75;129614;1264;114819;-66
2024/03/05 13:03:30;;;;;;;21.70;14.00;;;;;;;7.82;69.66;100177.52;129769;1260;116392;-66
2024/03/05 13:06:32;;;;;;;20.30;13.30;;;;;;;7.78;70.07;100175.75;129775;1278;114856;-66
2024/03/05 13:09:37;;;;;;;24.00;13.80;;;;;;;7.78;70.24;100177.86;129544;1266;114778;-65
2024/03/05 13:12:41;;;;;;;23.40;13.50;;;;;;;7.77;69.78;100184.84;129701;1265;114825;-65
2024/03/05 13:15:43;;;;;;;21.90;14.70;;;;;;;7.74;70.12;100179.62;129557;1260;127687;-66
2024/03/05 13:18:48;;;;;;;23.30;13.70;;;;;;;7.73;69.39;100184.99;129448;1261;115201;-66
2024/03/05 13:21:50;;;;;;;22.20;14.50;;;;;;;7.69;69.15;100185.89;129940;1265;114692;-65
2024/03/05 13:24:54;;;;;;;18.60;11.80;;;;;;;7.65;69.33;100194.56;129745;1265;114782;-64
2024/03/05 13:27:56;;;;;;;21.20;14.40;;;;;;;7.58;69.25;100197.68;129675;1259;115400;-65
2024/03/05 13:30:58;;;;;;;22.60;14.00;;;;;;;7.53;69.63;100199.13;129753;1265;114747;-65
2024/03/05 13:34:04;;;;;;;25.80;12.80;;;;;;;7.50;69.20;100198.68;129875;1273;114751;-66
2024/03/05 13:37:06;;;;;;;22.00;13.40;;;;;;;7.46;68.97;100196.89;129534;1263;114829;-66
2024/03/05 13:40:12;;;;;;;17.70;11.00;;;;;;;7.44;69.50;100198.22;129769;1266;114819;-65
2024/03/05 13:43:14;;;;;;;21.30;11.00;;;;;;;7.44;69.06;100204.59;129778;1261;114970;-66
2024/03/05 13:46:16;;;;;;;21.90;12.90;;;;;;;7.44;69.14;100204.60;129698;1264;114758;-66
2024/03/05 13:49:19;;;;;;;21.90;12.50;;;;;;;7.44;68.88;100208.86;129749;1282;114754;-66
2024/03/05 13:52:22;;;;;;;17.40;11.30;;;;;;;7.43;68.60;100208.90;129615;1265;127800;-66